Time;durP1;ratioP1;P1;durP2;ratioP2;P2;SDS_P1;SDS_P2;PMS_P1;PMS_P2;Temp;Humidity;BMP_temperature;BMP_pressure;BME280_temperature;BME280_humidity;BME280_pressure;Samples;Min_cycle;Max_cycle;Signal;HPM_P1;HPM_P2
2023/04/25 00:01:05;;;;;;;;;;;384.20;2329.60;;;;;;5034879;28;19975;-80
2023/04/25 00:03:31;;;;;;;;;;;384.20;2329.60;;;;;;5034891;28;19910;-79
2023/04/25 00:06:01;;;;;;;;;;;384.20;2329.60;;;;;;5035045;28;19905;-79
2023/04/25 00:08:27;;;;;;;;;;;384.20;2329.60;;;;;;5034963;28;19920;-71
2023/04/25 00:10:53;;;;;;;;;;;384.20;2329.60;;;;;;5034877;28;19909;-80
2023/04/25 00:13:19;;;;;;;;;;;384.10;2329.60;;;;;;5033457;28;19918;-73
2023/04/25 00:15:46;;;;;;;;;;;384.20;2329.60;;;;;;5034540;28;19909;-80
2023/04/25 00:18:11;;;;;;;;;;;384.20;2329.60;;;;;;5034846;28;20653;-80
2023/04/25 00:20:37;;;;;;;;;;;384.30;2329.60;;;;;;5034828;28;19905;-72
2023/04/25 00:23:02;;;;;;;;;;;384.30;2329.60;;;;;;5034596;28;19905;-72
2023/04/25 00:25:28;;;;;;;;;;;384.20;2329.60;;;;;;5034781;28;19909;-72
2023/04/25 00:27:54;;;;;;;;;;;384.30;2329.60;;;;;;5034644;28;19912;-71
2023/04/25 00:30:20;;;;;;;;;;;384.30;2329.60;;;;;;5034366;28;19905;-81
2023/04/25 00:32:45;;;;;;;;;;;384.30;2329.60;;;;;;4995293;28;1128065;-80
2023/04/25 00:35:11;;;;;;;;;;;384.30;2329.60;;;;;;5035286;28;20357;-71
2023/04/25 00:37:37;;;;;;;;;;;384.30;2329.60;;;;;;5035334;28;19952;-71
2023/04/25 00:40:05;;;;;;;;;;;384.20;2329.60;;;;;;5033993;28;20324;-71
2023/04/25 00:42:31;;;;;;;;;;;384.10;2329.60;;;;;;5022297;28;20059;-79
2023/04/25 00:44:58;;;;;;;;;;;384.10;2329.60;;;;;;5035306;28;20007;-71
2023/04/25 00:47:25;;;;;;;;;;;384.10;2329.60;;;;;;5035083;28;19983;-71
2023/04/25 00:49:51;;;;;;;;;;;384.10;2329.60;;;;;;5035157;28;19912;-71
2023/04/25 00:52:17;;;;;;;;;;;384.20;2329.60;;;;;;5034752;28;19905;-71
2023/04/25 00:54:42;;;;;;;;;;;384.20;2329.60;;;;;;5035096;28;19911;-71
2023/04/25 00:57:08;;;;;;;;;;;384.20;2329.60;;;;;;5034890;28;19909;-71
2023/04/25 00:59:34;;;;;;;;;;;384.20;2329.60;;;;;;5035019;28;19904;-71
2023/04/25 01:01:59;;;;;;;;;;;384.20;2329.60;;;;;;5033654;28;20411;-72
2023/04/25 01:04:26;;;;;;;;;;;384.10;2329.60;;;;;;5035801;28;19952;-71
2023/04/25 01:06:52;;;;;;;;;;;384.20;2329.60;;;;;;5036933;28;19905;-71
2023/04/25 01:09:19;;;;;;;;;;;384.20;2329.60;;;;;;5036249;28;20337;-71
2023/04/25 01:11:44;;;;;;;;;;;384.20;1945.60;;;;;;5035006;28;19927;-71
2023/04/25 01:14:10;;;;;;;;;;;384.30;2329.60;;;;;;5034662;28;20369;-72
2023/04/25 01:16:36;;;;;;;;;;;384.30;2329.60;;;;;;5034572;28;20254;-71
2023/04/25 01:19:05;;;;;;;;;;;384.30;2329.60;;;;;;5034797;28;19974;-80
2023/04/25 01:21:30;;;;;;;;;;;384.30;2329.60;;;;;;5034606;28;19968;-71
2023/04/25 01:23:56;;;;;;;;;;;384.40;2329.60;;;;;;5034620;28;20332;-78
2023/04/25 01:26:22;;;;;;;;;;;384.40;2329.60;;;;;;5034673;28;19905;-72
2023/04/25 01:28:48;;;;;;;;;;;384.40;2329.60;;;;;;5034148;28;19917;-71
2023/04/25 01:31:14;;;;;;;;;;;384.40;2329.60;;;;;;5034555;28;19927;-72
2023/04/25 01:33:40;;;;;;;;;;;384.30;2048.00;;;;;;5032890;28;20404;-71
2023/04/25 01:36:06;;;;;;;;;;;384.30;2022.40;;;;;;5034283;28;20000;-71
2023/04/25 01:38:31;;;;;;;;;;;384.30;2099.20;;;;;;5034322;28;20272;-71
2023/04/25 01:40:57;;;;;;;;;;;384.30;2304.00;;;;;;5034270;28;19909;-80
2023/04/25 01:43:23;;;;;;;;;;;384.40;2329.60;;;;;;5034113;28;19912;-71
2023/04/25 01:45:49;;;;;;;;;;;384.30;2252.80;;;;;;5034083;28;19952;-72
2023/04/25 01:48:15;;;;;;;;;;;384.30;2329.60;;;;;;5033908;28;19995;-71
2023/04/25 01:50:40;;;;;;;;;;;384.30;2329.60;;;;;;5034121;28;19952;-72
2023/04/25 01:53:06;;;;;;;;;;;384.30;2329.60;;;;;;5033843;28;19905;-72
2023/04/25 01:55:32;;;;;;;;;;;384.30;2329.60;;;;;;5034108;28;19952;-72
2023/04/25 01:57:58;;;;;;;;;;;384.30;2329.60;;;;;;5033953;28;19905;-71
2023/04/25 02:00:24;;;;;;;;;;;384.30;2329.60;;;;;;5033782;28;19920;-71
2023/04/25 02:02:50;;;;;;;;;;;384.30;2329.60;;;;;;5033740;28;19913;-71
2023/04/25 02:05:16;;;;;;;;;;;384.30;2329.60;;;;;;5033548;28;19905;-71
2023/04/25 02:07:42;;;;;;;;;;;384.30;2329.60;;;;;;5033521;28;19958;-71
2023/04/25 02:10:08;;;;;;;;;;;384.30;2329.60;;;;;;5033863;28;20000;-71
2023/04/25 02:12:35;;;;;;;;;;;384.30;2329.60;;;;;;5033395;28;19949;-71
2023/04/25 02:15:00;;;;;;;;;;;384.30;2329.60;;;;;;5033710;28;19905;-71
2023/04/25 02:17:26;;;;;;;;;;;384.30;2099.20;;;;;;5033588;28;20031;-70
2023/04/25 02:19:52;;;;;;;;;;;384.20;2227.20;;;;;;5033456;28;19905;-71
2023/04/25 02:22:17;;;;;;;;;;;384.10;2278.40;;;;;;5033617;28;19913;-71
2023/04/25 02:24:43;;;;;;;;;;;384.10;2278.40;;;;;;5033672;28;20436;-71
2023/04/25 02:27:08;;;;;;;;;;;384.10;2176.00;;;;;;5033537;28;20258;-71
2023/04/25 02:29:34;;;;;;;;;;;384.10;2329.60;;;;;;5033633;28;20343;-77
2023/04/25 02:32:00;;;;;;;;;;;384.10;2227.20;;;;;;5033062;28;19920;-71
2023/04/25 02:34:25;;;;;;;;;;;384.10;2022.40;;;;;;5033595;28;19936;-71
2023/04/25 02:36:51;;;;;;;;;;;384.10;2329.60;;;;;;5033453;28;20349;-72
2023/04/25 02:39:17;;;;;;;;;;;384.10;2329.60;;;;;;5033569;28;20332;-72
2023/04/25 02:41:42;;;;;;;;;;;384.10;2329.60;;;;;;5033366;28;19920;-78
2023/04/25 02:44:08;;;;;;;;;;;384.10;2329.60;;;;;;5033527;28;19916;-71
2023/04/25 02:46:33;;;;;;;;;;;384.20;2329.60;;;;;;5033566;28;19944;-71
2023/04/25 02:48:59;;;;;;;;;;;384.20;2329.60;;;;;;5033353;28;19905;-72
2023/04/25 02:51:24;;;;;;;;;;;384.20;2329.60;;;;;;5033207;28;19905;-71
2023/04/25 02:53:50;;;;;;;;;;;384.10;2329.60;;;;;;5033141;28;19996;-71
2023/04/25 02:56:16;;;;;;;;;;;384.10;2329.60;;;;;;5033560;28;19951;-71
2023/04/25 02:58:41;;;;;;;;;;;384.10;2329.60;;;;;;5033104;28;19905;-79
2023/04/25 03:01:07;;;;;;;;;;;384.10;2329.60;;;;;;5033041;28;19913;-71
2023/04/25 03:03:32;;;;;;;;;;;384.10;2329.60;;;;;;5033095;28;19917;-77
2023/04/25 03:05:58;;;;;;;;;;;384.10;2329.60;;;;;;5033107;28;19909;-71
2023/04/25 03:08:25;;;;;;;;;;;384.10;2329.60;;;;;;5033131;28;19947;-71
2023/04/25 03:10:51;;;;;;;;;;;384.00;2329.60;;;;;;5033222;28;19905;-71
2023/04/25 03:13:17;;;;;;;;;;;384.10;2329.60;;;;;;5033116;28;20396;-71
2023/04/25 03:15:43;;;;;;;;;;;384.00;2329.60;;;;;;5033405;28;19905;-71
2023/04/25 03:18:08;;;;;;;;;;;384.00;2329.60;;;;;;5032974;28;19908;-71
2023/04/25 03:20:34;;;;;;;;;;;384.00;2329.60;;;;;;5032951;28;20369;-71
2023/04/25 03:23:00;;;;;;;;;;;384.00;2329.60;;;;;;5033008;28;19959;-71
2023/04/25 03:25:25;;;;;;;;;;;384.00;2329.60;;;;;;5033610;28;20383;-71
2023/04/25 03:27:51;;;;;;;;;;;359.30;2329.60;;;;;;5036506;28;19905;-71
2023/04/25 03:30:16;;;;;;;;;;;359.30;2329.60;;;;;;5036729;28;20361;-71
2023/04/25 03:32:42;;;;;;;;;;;359.30;1945.60;;;;;;5036460;28;19928;-80
2023/04/25 03:35:07;;;;;;;;;;;359.30;1971.20;;;;;;5036607;28;20033;-79
2023/04/25 03:37:33;;;;;;;;;;;359.30;1996.80;;;;;;5036357;28;19909;-79
2023/04/25 03:39:59;;;;;;;;;;;359.30;2022.40;;;;;;5036788;28;19912;-74
2023/04/25 03:42:24;;;;;;;;;;;359.20;1996.80;;;;;;5036195;28;19913;-72
2023/04/25 03:44:51;;;;;;;;;;;359.30;2201.60;;;;;;5036566;28;19951;-71
2023/04/25 03:47:16;;;;;;;;;;;359.20;2176.00;;;;;;5036219;28;20255;-79
2023/04/25 03:49:42;;;;;;;;;;;359.30;2329.60;;;;;;5036352;28;19906;-71
2023/04/25 03:52:08;;;;;;;;;;;359.30;2329.60;;;;;;5036046;28;20007;-72
2023/04/25 03:54:33;;;;;;;;;;;359.30;2329.60;;;;;;5036171;28;19916;-72
2023/04/25 03:56:59;;;;;;;;;;;359.30;2329.60;;;;;;5036156;28;19955;-72
2023/04/25 03:59:25;;;;;;;;;;;359.30;2201.60;;;;;;5036134;28;19905;-72
2023/04/25 04:01:52;;;;;;;;;;;359.30;2329.60;;;;;;5035805;28;19918;-72
2023/04/25 04:04:17;;;;;;;;;;;359.20;2329.60;;;;;;5036083;28;19909;-72
2023/04/25 04:06:43;;;;;;;;;;;359.30;2329.60;;;;;;5035881;28;19912;-71
2023/04/25 04:09:10;;;;;;;;;;;359.30;2329.60;;;;;;5036131;28;20356;-72
2023/04/25 04:11:38;;;;;;;;;;;359.30;2329.60;;;;;;5035520;28;20017;-71
2023/04/25 04:14:07;;;;;;;;;;;359.30;2329.60;;;;;;5035983;28;19912;-72
2023/04/25 04:16:33;;;;;;;;;;;359.20;2329.60;;;;;;5035925;28;19912;-79
2023/04/25 04:18:58;;;;;;;;;;;359.00;2329.60;;;;;;5035512;28;20288;-71
2023/04/25 04:21:24;;;;;;;;;;;358.80;2329.60;;;;;;5035746;28;19913;-75
2023/04/25 04:23:50;;;;;;;;;;;358.80;2329.60;;;;;;5035482;28;20257;-72
2023/04/25 04:26:18;;;;;;;;;;;358.80;2329.60;;;;;;5035800;28;19967;-73
2023/04/25 04:28:46;;;;;;;;;;;358.70;2329.60;;;;;;5035343;28;19905;-78
2023/04/25 04:31:12;;;;;;;;;;;358.50;2329.60;;;;;;5035397;28;19916;-71
2023/04/25 04:33:38;;;;;;;;;;;358.50;2329.60;;;;;;5035279;28;20449;-71
2023/04/25 04:36:03;;;;;;;;;;;358.40;2329.60;;;;;;5035343;28;19959;-71
2023/04/25 04:38:30;;;;;;;;;;;333.60;2329.60;;;;;;5035507;28;19905;-71
2023/04/25 04:40:55;;;;;;;;;;;333.60;2329.60;;;;;;5032454;28;19992;-71
2023/04/25 04:43:22;;;;;;;;;;;333.70;2329.60;;;;;;5030835;28;20430;-70
2023/04/25 04:45:48;;;;;;;;;;;333.60;2329.60;;;;;;5048911;28;19912;-71
2023/04/25 04:48:14;;;;;;;;;;;333.50;2329.60;;;;;;5031459;28;19912;-71
2023/04/25 04:50:40;;;;;;;;;;;333.50;2329.60;;;;;;5035992;28;19904;-70
2023/04/25 04:53:07;;;;;;;;;;;333.40;2329.60;;;;;;5028072;28;19905;-70
2023/04/25 04:55:32;;;;;;;;;;;333.40;2329.60;;;;;;5031196;28;20342;-71
2023/04/25 04:57:58;;;;;;;;;;;333.40;2329.60;;;;;;5035151;28;19909;-70
2023/04/25 05:00:23;;;;;;;;;;;333.40;2329.60;;;;;;5025681;28;20396;-70
2023/04/25 05:02:49;;;;;;;;;;;333.20;2329.60;;;;;;5030276;28;19917;-73
2023/04/25 05:05:14;;;;;;;;;;;333.30;2329.60;;;;;;5029561;28;19951;-70
2023/04/25 05:07:40;;;;;;;;;;;333.20;2329.60;;;;;;5025862;28;19905;-72
2023/04/25 05:10:06;;;;;;;;;;;333.20;2329.60;;;;;;5032281;28;19904;-70
2023/04/25 05:12:31;;;;;;;;;;;333.20;2329.60;;;;;;5029220;28;20428;-70
2023/04/25 05:14:57;;;;;;;;;;;333.20;2329.60;;;;;;5028322;28;20392;-70
2023/04/25 05:17:23;;;;;;;;;;;333.40;2329.60;;;;;;5025595;28;19992;-70
2023/04/25 05:19:48;;;;;;;;;;;333.20;2329.60;;;;;;5025928;28;19916;-70
2023/04/25 05:22:14;;;;;;;;;;;333.20;2329.60;;;;;;5025071;28;19956;-70
2023/04/25 05:24:39;;;;;;;;;;;333.30;2329.60;;;;;;5025003;28;19973;-71
2023/04/25 05:27:05;;;;;;;;;;;333.30;2329.60;;;;;;5029521;28;19905;-71
2023/04/25 05:29:31;;;;;;;;;;;333.20;2329.60;;;;;;5025356;28;19916;-70
2023/04/25 05:31:56;;;;;;;;;;;333.30;2329.60;;;;;;5022332;28;19917;-70
2023/04/25 05:34:22;;;;;;;;;;;333.30;2329.60;;;;;;5026276;28;19909;-71
2023/04/25 05:36:50;;;;;;;;;;;333.30;2329.60;;;;;;5024606;28;19905;-71
2023/04/25 05:39:16;;;;;;;;;;;333.30;2329.60;;;;;;5029014;28;19906;-72
2023/04/25 05:41:42;;;;;;;;;;;333.30;2048.00;;;;;;5032970;28;19913;-71
2023/04/25 05:44:08;;;;;;;;;;;333.20;2329.60;;;;;;5034649;28;20074;-74
2023/04/25 05:46:33;;;;;;;;;;;333.30;2329.60;;;;;;5034158;28;20327;-70
2023/04/25 05:48:59;;;;;;;;;;;333.30;2329.60;;;;;;5033217;28;19988;-73
2023/04/25 05:51:24;;;;;;;;;;;333.20;2329.60;;;;;;5034053;28;19904;-70
2023/04/25 05:53:50;;;;;;;;;;;333.30;2329.60;;;;;;5033882;28;19909;-71
2023/04/25 05:56:15;;;;;;;;;;;333.30;2329.60;;;;;;5033879;28;19905;-78
2023/04/25 05:58:41;;;;;;;;;;;333.20;2329.60;;;;;;5034043;28;19905;-73
2023/04/25 06:01:06;;;;;;;;;;;333.20;2329.60;;;;;;5033655;28;19913;-72
2023/04/25 06:03:32;;;;;;;;;;;333.20;2329.60;;;;;;5033774;28;20003;-73
2023/04/25 06:05:57;;;;;;;;;;;333.20;2329.60;;;;;;5033879;28;19906;-73
2023/04/25 06:08:23;;;;;;;;;;;333.20;2329.60;;;;;;5025998;28;19912;-72
2023/04/25 06:10:49;;;;;;;;;;;333.10;2329.60;;;;;;5033089;28;19908;-72
2023/04/25 06:13:15;;;;;;;;;;;333.10;2329.60;;;;;;5026840;28;20281;-72
2023/04/25 06:15:40;;;;;;;;;;;333.10;2329.60;;;;;;5023865;28;19912;-71
2023/04/25 06:18:06;;;;;;;;;;;333.20;2329.60;;;;;;5029836;28;20284;-72
2023/04/25 06:20:32;;;;;;;;;;;333.20;2329.60;;;;;;5027308;28;20347;-72
2023/04/25 06:22:57;;;;;;;;;;;333.20;2329.60;;;;;;5026209;28;19917;-72
2023/04/25 06:25:23;;;;;;;;;;;333.10;2329.60;;;;;;5036022;28;19905;-72
2023/04/25 06:27:48;;;;;;;;;;;333.10;2329.60;;;;;;5038629;28;20365;-71
2023/04/25 06:30:15;;;;;;;;;;;333.00;2329.60;;;;;;5034266;28;20254;-71
2023/04/25 06:32:40;;;;;;;;;;;333.20;2329.60;;;;;;5035245;28;19965;-72
2023/04/25 06:35:06;;;;;;;;;;;333.20;2329.60;;;;;;5030043;28;20336;-72
2023/04/25 06:37:31;;;;;;;;;;;333.20;2329.60;;;;;;5034508;28;20278;-72
2023/04/25 06:39:57;;;;;;;;;;;333.10;2329.60;;;;;;5029822;28;19905;-72
2023/04/25 06:42:23;;;;;;;;;;;333.20;2329.60;;;;;;5028827;28;20008;-72
2023/04/25 06:44:48;;;;;;;;;;;333.20;2329.60;;;;;;5031120;28;19941;-78
2023/04/25 06:47:14;;;;;;;;;;;333.10;2329.60;;;;;;5024083;28;20359;-72
2023/04/25 06:49:40;;;;;;;;;;;333.20;2329.60;;;;;;5029143;28;20449;-75
2023/04/25 06:52:05;;;;;;;;;;;333.20;2329.60;;;;;;5035710;28;19905;-71
2023/04/25 06:54:31;;;;;;;;;;;333.20;2329.60;;;;;;5035710;28;19939;-73
2023/04/25 06:56:56;;;;;;;;;;;333.10;2329.60;;;;;;5029316;28;20289;-77
2023/04/25 06:59:22;;;;;;;;;;;333.20;2329.60;;;;;;5032035;28;19905;-72
2023/04/25 07:01:47;;;;;;;;;;;333.20;2329.60;;;;;;5027708;28;20388;-75
2023/04/25 07:04:13;;;;;;;;;;;333.20;2329.60;;;;;;5030459;28;19943;-71
2023/04/25 07:06:42;;;;;;;;;;;333.20;2329.60;;;;;;5041871;28;19908;-70
2023/04/25 07:09:11;;;;;;;;;;;333.20;2329.60;;;;;;5028064;28;19905;-70
2023/04/25 07:11:36;;;;;;;;;;;333.20;2329.60;;;;;;5038545;28;19905;-71
2023/04/25 07:14:02;;;;;;;;;;;333.20;2329.60;;;;;;5039566;28;19912;-71
2023/04/25 07:16:28;;;;;;;;;;;333.10;2329.60;;;;;;5039298;28;20241;-70
2023/04/25 07:18:53;;;;;;;;;;;333.10;2329.60;;;;;;5032926;28;19920;-72
2023/04/25 07:21:19;;;;;;;;;;;333.10;2329.60;;;;;;5023624;28;19964;-71
2023/04/25 07:23:44;;;;;;;;;;;333.20;2329.60;;;;;;5037436;28;19904;-71
2023/04/25 07:26:10;;;;;;;;;;;333.20;2329.60;;;;;;5032699;28;19911;-71
2023/04/25 07:28:36;;;;;;;;;;;333.20;2329.60;;;;;;5038062;28;19996;-71
2023/04/25 07:31:02;;;;;;;;;;;333.20;2329.60;;;;;;5030354;28;19909;-73
2023/04/25 07:33:27;;;;;;;;;;;333.20;2329.60;;;;;;5037440;28;19921;-70
2023/04/25 07:35:53;;;;;;;;;;;333.30;2329.60;;;;;;5037949;28;19912;-71
2023/04/25 07:38:18;;;;;;;;;;;333.20;2329.60;;;;;;5035476;28;19916;-72
2023/04/25 07:40:44;;;;;;;;;;;333.20;2329.60;;;;;;5039892;28;19909;-72
2023/04/25 07:43:12;;;;;;;;;;;333.20;2329.60;;;;;;5036080;28;19913;-71
2023/04/25 07:45:37;;;;;;;;;;;333.30;2329.60;;;;;;5024075;28;19912;-72
2023/04/25 07:48:03;;;;;;;;;;;333.40;2329.60;;;;;;5029493;28;19905;-70
2023/04/25 07:50:28;;;;;;;;;;;333.40;2329.60;;;;;;5035552;28;19909;-69
2023/04/25 07:52:54;;;;;;;;;;;333.50;2329.60;;;;;;5032724;28;19905;-69
2023/04/25 07:55:19;;;;;;;;;;;333.50;2329.60;;;;;;5034332;28;19905;-74
2023/04/25 07:57:45;;;;;;;;;;;333.50;2329.60;;;;;;5035200;28;19912;-70
2023/04/25 08:00:11;;;;;;;;;;;333.60;2329.60;;;;;;5035201;28;19999;-70
2023/04/25 08:02:37;;;;;;;;;;;333.70;2329.60;;;;;;5042035;28;19958;-69
2023/04/25 08:05:03;;;;;;;;;;;358.40;2329.60;;;;;;5039094;28;19913;-70
2023/04/25 08:07:28;;;;;;;;;;;358.40;2329.60;;;;;;5034664;28;19908;-70
2023/04/25 08:09:54;;;;;;;;;;;358.40;2329.60;;;;;;5033852;28;20261;-73
2023/04/25 08:12:20;;;;;;;;;;;358.50;2329.60;;;;;;5036130;28;19958;-71
2023/04/25 08:14:45;;;;;;;;;;;358.50;2329.60;;;;;;5030152;28;19913;-72
2023/04/25 08:17:11;;;;;;;;;;;358.50;2329.60;;;;;;5041773;28;19913;-70
2023/04/25 08:19:37;;;;;;;;;;;358.50;2329.60;;;;;;5033791;28;19912;-72
2023/04/25 08:22:02;;;;;;;;;;;358.50;2329.60;;;;;;5038589;28;20060;-70
2023/04/25 08:24:28;;;;;;;;;;;358.50;2329.60;;;;;;5036984;28;19963;-71
2023/04/25 08:26:54;;;;;;;;;;;358.50;2329.60;;;;;;5045813;28;20257;-73
2023/04/25 08:29:19;;;;;;;;;;;358.60;2329.60;;;;;;5035641;28;19909;-70
2023/04/25 08:31:45;;;;;;;;;;;358.70;2329.60;;;;;;5036872;28;19916;-71
2023/04/25 08:34:11;;;;;;;;;;;358.70;2329.60;;;;;;5025611;28;19917;-70
2023/04/25 08:36:36;;;;;;;;;;;358.70;2329.60;;;;;;5027435;28;19905;-70
2023/04/25 08:39:02;;;;;;;;;;;333.60;2329.60;;;;;;5039207;28;19909;-71
2023/04/25 08:41:27;;;;;;;;;;;358.60;2329.60;;;;;;5021105;28;20475;-70
2023/04/25 08:43:53;;;;;;;;;;;358.70;2329.60;;;;;;5038071;28;19904;-70
2023/04/25 08:46:19;;;;;;;;;;;358.70;2329.60;;;;;;5037425;28;19955;-70
2023/04/25 08:48:45;;;;;;;;;;;358.70;2329.60;;;;;;5030432;28;19982;-70
2023/04/25 08:51:15;;;;;;;;;;;358.70;2329.60;;;;;;5024119;28;19913;-70
2023/04/25 08:53:42;;;;;;;;;;;358.70;2329.60;;;;;;5033373;28;19958;-70
2023/04/25 08:56:09;;;;;;;;;;;358.80;2329.60;;;;;;5032635;28;20387;-71
2023/04/25 08:58:35;;;;;;;;;;;358.80;2329.60;;;;;;5044294;28;19905;-71
2023/04/25 09:01:01;;;;;;;;;;;359.00;2329.60;;;;;;5031239;28;19913;-71
2023/04/25 09:03:26;;;;;;;;;;;359.00;2329.60;;;;;;5032220;28;19943;-73
2023/04/25 09:05:52;;;;;;;;;;;359.10;2329.60;;;;;;5045108;28;19905;-71
2023/04/25 09:08:18;;;;;;;;;;;359.10;2329.60;;;;;;5034868;28;19966;-74
2023/04/25 09:10:43;;;;;;;;;;;359.00;2329.60;;;;;;5040694;28;19911;-75
2023/04/25 09:13:12;;;;;;;;;;;359.20;2329.60;;;;;;5028546;28;19915;-71
2023/04/25 09:15:51;;;;;;;;;;;359.20;2329.60;;;;;;5031260;28;19905;-72
2023/04/25 09:18:27;;;;;;;;;;;359.20;2329.60;;;;;;5030844;28;19955;-77
2023/04/25 09:20:53;;;;;;;;;;;359.30;2329.60;;;;;;5034272;28;20011;-73
2023/04/25 09:23:21;;;;;;;;;;;359.30;2329.60;;;;;;5026440;28;20443;-79
2023/04/25 09:25:53;;;;;;;;;;;384.00;2329.60;;;;;;5033564;28;19931;-78
2023/04/25 09:28:26;;;;;;;;;;;384.10;2329.60;;;;;;5031409;28;19913;-73
2023/04/25 09:30:56;;;;;;;;;;;384.10;2329.60;;;;;;5034002;28;20328;-72
2023/04/25 09:33:27;;;;;;;;;;;384.20;2329.60;;;;;;5035856;28;19965;-72
2023/04/25 09:35:55;;;;;;;;;;;384.30;2329.60;;;;;;5024401;28;19944;-73
2023/04/25 09:38:21;;;;;;;;;;;384.30;2329.60;;;;;;5030705;28;19912;-73
2023/04/25 09:40:49;;;;;;;;;;;384.40;2329.60;;;;;;5035958;28;20288;-73
2023/04/25 09:43:24;;;;;;;;;;;384.40;2329.60;;;;;;5026919;28;19936;-73
2023/04/25 09:45:51;;;;;;;;;;;384.50;2329.60;;;;;;5032553;28;19904;-72
2023/04/25 09:48:20;;;;;;;;;;;384.70;2329.60;;;;;;5030362;28;19905;-73
2023/04/25 09:51:03;;;;;;;;;;;384.80;2329.60;;;;;;5035538;28;19944;-72
2023/04/25 09:53:29;;;;;;;;;;;384.90;2329.60;;;;;;5032487;28;19947;-73
2023/04/25 09:55:55;;;;;;;;;;;384.90;2329.60;;;;;;5031982;28;19940;-74
2023/04/25 09:58:21;;;;;;;;;;;409.60;2355.20;;;;;;5032544;28;20339;-75
2023/04/25 10:00:47;;;;;;;;;;;409.70;2355.20;;;;;;5028857;28;19945;-71
2023/04/25 10:03:13;;;;;;;;;;;409.80;2355.20;;;;;;5036929;28;19913;-70
2023/04/25 10:05:40;;;;;;;;;;;409.80;2355.20;;;;;;5025000;28;20003;-73
2023/04/25 10:08:06;;;;;;;;;;;409.70;2355.20;;;;;;5032360;28;19958;-71
2023/04/25 10:10:35;;;;;;;;;;;410.20;2355.20;;;;;;5034701;28;19987;-72
2023/04/25 10:13:03;;;;;;;;;;;409.80;2355.20;;;;;;5024553;28;19906;-71
2023/04/25 10:15:29;;;;;;;;;;;409.90;2355.20;;;;;;5030819;28;20365;-70
2023/04/25 10:17:55;;;;;;;;;;;409.90;2355.20;;;;;;5022762;28;20400;-72
2023/04/25 10:20:22;;;;;;;;;;;410.00;2355.20;;;;;;5037355;28;19920;-72
2023/04/25 10:22:48;;;;;;;;;;;410.00;2355.20;;;;;;5029099;28;19913;-71
2023/04/25 10:25:14;;;;;;;;;;;410.00;2355.20;;;;;;5026459;28;19905;-77
2023/04/25 10:27:40;;;;;;;;;;;410.20;2355.20;;;;;;5038235;28;19909;-70
2023/04/25 10:30:06;;;;;;;;;;;410.20;2355.20;;;;;;5036684;28;19916;-77
2023/04/25 10:32:32;;;;;;;;;;;410.20;2355.20;;;;;;5036700;28;19939;-71
2023/04/25 10:35:09;;;;;;;;;;;410.30;2355.20;;;;;;5031664;28;19963;-71
2023/04/25 10:37:35;;;;;;;;;;;410.30;2355.20;;;;;;5040120;28;19943;-71
2023/04/25 10:40:08;;;;;;;;;;;410.30;2355.20;;;;;;5039133;28;19905;-70
2023/04/25 10:42:33;;;;;;;;;;;410.50;2355.20;;;;;;5036193;28;20316;-72
2023/04/25 10:45:04;;;;;;;;;;;435.20;2355.20;;;;;;5030332;28;19917;-71
2023/04/25 10:47:36;;;;;;;;;;;435.30;2355.20;;;;;;5040119;28;19905;-71
2023/04/25 10:50:06;;;;;;;;;;;435.20;2355.20;;;;;;5050052;28;19905;-71
2023/04/25 10:52:32;;;;;;;;;;;410.50;2355.20;;;;;;5036468;28;19948;-71
2023/04/25 10:54:58;;;;;;;;;;;410.50;2355.20;;;;;;5041803;28;19913;-70
2023/04/25 10:58:35;;;;;;;5.13;3.15;;;410.30;2355.20;;;;;;5078363;27;20396;-71
2023/04/25 11:01:01;;;;;;;5.97;3.00;;;435.20;2355.20;;;;;;5069274;28;20047;-73
2023/04/25 11:03:27;;;;;;;6.22;3.75;;;435.30;2355.20;;;;;;5069496;28;20075;-72
2023/04/25 11:05:53;;;;;;;9.90;4.25;;;435.30;2355.20;;;;;;5069633;28;20488;-74
2023/04/25 11:08:47;;;;;;;5.65;3.35;;;435.20;2355.20;;;;;;5069465;28;20017;-72
2023/04/25 11:11:13;;;;;;;6.75;3.50;;;435.20;2355.20;;;;;;5083548;28;20021;-74
2023/04/25 11:13:38;;;;;;;4.78;3.22;;;410.50;2355.20;;;;;;5068992;28;20074;-73
2023/04/25 11:16:08;;;;;;;5.30;3.20;;;410.40;2355.20;;;;;;5069454;28;20480;-71
2023/04/25 11:18:34;;;;;;;6.25;3.55;;;410.30;2355.20;;;;;;5067978;28;20033;-71
2023/04/25 11:21:00;;;;;;;15.70;6.32;;;410.30;2355.20;;;;;;5067652;28;20025;-73
2023/04/25 11:23:26;;;;;;;10.18;5.22;;;410.30;2355.20;;;;;;5062793;28;20166;-72
2023/04/25 11:25:52;;;;;;;8.10;4.03;;;435.20;2355.20;;;;;;5057237;28;20022;-72
2023/04/25 11:28:22;;;;;;;6.35;4.32;;;435.70;2355.20;;;;;;5062384;28;20017;-73
2023/04/25 11:30:50;;;;;;;9.40;4.82;;;436.00;2329.60;;;;;;5061938;28;20036;-72
2023/04/25 11:33:16;;;;;;;14.98;5.22;;;435.80;2355.20;;;;;;5069159;28;20009;-71
2023/04/25 11:35:43;;;;;;;6.05;3.78;;;435.70;2304.00;;;;;;5068995;28;20029;-72
2023/04/25 11:38:08;;;;;;;8.43;3.97;;;435.60;2252.80;;;;;;5068738;28;20033;-71
2023/04/25 11:40:36;;;;;;;6.30;4.30;;;435.60;2355.20;;;;;;5064364;28;20365;-72
2023/04/25 11:43:02;;;;;;;7.45;3.78;;;435.90;2355.20;;;;;;5068725;28;20036;-71
2023/04/25 11:45:30;;;;;;;7.78;4.32;;;460.80;2355.20;;;;;;5069153;28;20025;-72
2023/04/25 11:47:56;;;;;;;5.97;3.08;;;436.10;2355.20;;;;;;5068748;28;20025;-75
2023/04/25 11:50:21;;;;;;;6.70;3.83;;;436.00;2278.40;;;;;;5065681;28;20393;-73
2023/04/25 11:52:48;;;;;;;6.50;3.92;;;435.90;2355.20;;;;;;5068780;28;20024;-76
2023/04/25 11:55:19;;;;;;;5.47;3.08;;;436.10;2355.20;;;;;;5068081;28;20488;-73
2023/04/25 11:57:47;;;;;;;7.90;3.65;;;435.90;2252.80;;;;;;5067019;28;20408;-72
2023/04/25 12:00:20;;;;;;;5.63;3.30;;;461.00;2278.40;;;;;;5065019;28;20020;-76
2023/04/25 12:02:50;;;;;;;7.90;3.70;;;461.50;2099.20;;;;;;5072300;28;20021;-76
2023/04/25 12:05:16;;;;;;;7.63;3.78;;;461.20;2124.80;;;;;;5073115;28;20032;-75
2023/04/25 12:07:42;;;;;;;9.52;3.80;;;461.10;2124.80;;;;;;5083774;28;20031;-78
2023/04/25 12:10:10;;;;;;;8.40;3.75;;;460.90;2124.80;;;;;;5054456;28;20378;-78
2023/04/25 12:12:36;;;;;;;6.95;3.95;;;460.80;2124.80;;;;;;5055215;28;20078;-76
2023/04/25 12:15:19;;;;;;;6.07;3.65;;;436.10;2099.20;;;;;;5055825;28;20021;-77
2023/04/25 12:17:49;;;;;;;7.60;3.85;;;435.90;2227.20;;;;;;5050008;28;20044;-77
2023/04/25 12:20:25;;;;;;;5.75;3.42;;;435.80;2355.20;;;;;;5053712;28;20116;-77
2023/04/25 12:22:52;;;;;;;10.82;3.05;;;436.00;2304.00;;;;;;5042165;28;20029;-76
2023/04/25 12:25:36;;;;;;;8.52;2.58;;;460.90;2176.00;;;;;;5049140;28;20067;-76
2023/04/25 12:28:16;;;;;;;8.15;3.88;;;461.00;2150.40;;;;;;5051327;28;20051;-77
2023/04/25 12:31:00;;;;;;;7.40;3.75;;;460.90;2304.00;;;;;;5054373;28;20017;-76
2023/04/25 12:33:28;;;;;;;9.63;4.15;;;460.90;2150.40;;;;;;5051656;28;20043;-75
2023/04/25 12:35:54;;;;;;;5.82;3.45;;;436.10;2124.80;;;;;;5051838;28;20017;-77
2023/04/25 12:38:25;;;;;;;6.90;3.63;;;436.00;2124.80;;;;;;5050584;28;20029;-77
2023/04/25 12:40:51;;;;;;;4.57;3.05;;;435.90;2176.00;;;;;;5064812;28;20033;-77
2023/04/25 12:43:17;;;;;;;9.27;4.40;;;435.90;2124.80;;;;;;5054068;28;20439;-76
2023/04/25 12:45:44;;;;;;;12.20;4.15;;;435.90;2227.20;;;;;;5051185;28;20021;-77
2023/04/25 12:48:10;;;;;;;6.65;3.63;;;435.90;2278.40;;;;;;5069887;28;20025;-77
2023/04/25 12:50:35;;;;;;;7.82;4.45;;;435.80;2176.00;;;;;;5054726;28;20024;-73
2023/04/25 12:53:01;;;;;;;7.03;3.75;;;435.90;2278.40;;;;;;5054594;28;20445;-73
2023/04/25 12:55:27;;;;;;;7.90;4.43;;;460.90;2304.00;;;;;;5054885;28;20029;-78
2023/04/25 12:57:53;;;;;;;9.65;4.95;;;460.80;2355.20;;;;;;5054476;28;20128;-76
2023/04/25 13:00:19;;;;;;;10.00;4.88;;;461.50;2227.20;;;;;;5055145;28;20488;-76
2023/04/25 13:02:46;;;;;;;7.70;4.30;;;461.70;2099.20;;;;;;5054347;28;20170;-78
2023/04/25 13:05:12;;;;;;;4.95;2.85;;;486.40;2048.00;;;;;;5054620;28;20104;-73
2023/04/25 13:07:38;;;;;;;6.85;3.97;;;461.70;1996.80;;;;;;5054318;28;20120;-76
2023/04/25 13:10:05;;;;;;;5.72;3.42;;;486.40;1971.20;;;;;;5054417;28;20044;-73
2023/04/25 13:12:31;;;;;;;6.57;3.45;;;;;;;;;;5054509;28;20021;-77
2023/04/25 13:14:57;;;;;;;4.72;2.90;;;487.10;1792.00;;;;;;5054695;28;20163;-77
2023/04/25 13:17:23;;;;;;;11.18;2.60;;;512.10;1792.00;;;;;;5054333;28;20119;-73
2023/04/25 13:19:49;;;;;;;6.38;3.20;;;512.30;1664.00;;;;;;5053336;28;20580;-75
2023/04/25 13:22:16;;;;;;;5.32;3.25;;;512.30;1664.00;;;;;;5054001;28;20428;-76